Time;durP1;ratioP1;P1;durP2;ratioP2;P2;SDS_P1;SDS_P2;PMS_P1;PMS_P2;Temp;Humidity;BMP_temperature;BMP_pressure;BME280_temperature;BME280_humidity;BME280_pressure;Samples;Min_cycle;Max_cycle;Signal;HPM_P1;HPM_P2
2023/03/27 00:00:27;;;;;;;13.13;5.95;;;12.80;88.10;;;;;;4975280;28;20471;-74
2023/03/27 00:02:53;;;;;;;8.32;4.00;;;12.80;88.80;;;;;;4975546;28;20022;-72
2023/03/27 00:05:20;;;;;;;9.30;4.40;;;12.90;88.50;;;;;;4974891;28;20070;-73
2023/03/27 00:07:47;;;;;;;9.48;3.97;;;12.90;88.60;;;;;;4975303;28;20042;-72
2023/03/27 00:10:14;;;;;;;7.15;3.65;;;12.90;88.40;;;;;;4975134;28;20110;-73
2023/03/27 00:12:43;;;;;;;10.63;4.15;;;12.90;88.30;;;;;;4968287;28;20026;-72
2023/03/27 00:15:15;;;;;;;10.00;3.83;;;12.90;87.90;;;;;;4975156;28;20145;-73
2023/03/27 00:17:46;;;;;;;9.70;3.65;;;12.90;87.80;;;;;;4975198;28;20066;-74
2023/03/27 00:20:14;;;;;;;9.80;3.92;;;12.90;88.50;;;;;;4957477;28;20035;-73
2023/03/27 00:22:40;;;;;;;11.52;4.38;;;12.90;88.60;;;;;;4974883;28;20026;-72
2023/03/27 00:25:06;;;;;;;12.02;4.75;;;12.90;87.80;;;;;;4975055;28;20506;-73
2023/03/27 00:27:32;;;;;;;9.52;3.88;;;13.00;88.80;;;;;;4974924;28;20039;-74
2023/03/27 00:29:58;;;;;;;10.23;4.03;;;12.90;88.60;;;;;;4957594;28;20402;-73
2023/03/27 00:32:24;;;;;;;10.75;4.50;;;12.90;88.80;;;;;;4973149;28;20034;-73
2023/03/27 00:34:50;;;;;;;8.20;3.58;;;12.90;88.50;;;;;;4957134;28;20026;-72
2023/03/27 00:37:16;;;;;;;9.20;3.72;;;12.90;87.80;;;;;;4974949;28;20419;-74
2023/03/27 00:39:42;;;;;;;9.48;4.30;;;13.00;88.00;;;;;;4974188;28;20029;-74
2023/03/27 00:42:13;;;;;;;9.60;3.88;;;13.00;87.50;;;;;;4969471;28;20514;-72
2023/03/27 00:44:41;;;;;;;7.32;3.55;;;13.10;87.30;;;;;;4953723;29;20031;-71
2023/03/27 00:47:11;;;;;;;8.68;3.83;;;13.10;86.90;;;;;;4953870;29;20036;-73
2023/03/27 00:49:38;;;;;;;9.32;3.85;;;13.10;88.30;;;;;;4937540;29;20027;-73
2023/03/27 00:52:05;;;;;;;10.35;4.20;;;13.20;87.60;;;;;;4955355;29;20031;-72
2023/03/27 00:54:37;;;;;;;9.55;4.32;;;13.20;87.60;;;;;;4953820;29;20570;-72
2023/03/27 00:57:08;;;;;;;8.45;3.83;;;13.20;86.50;;;;;;4952165;29;20039;-73
2023/03/27 00:59:38;;;;;;;13.68;4.45;;;13.30;87.50;;;;;;4951863;29;20035;-73
2023/03/27 01:02:06;;;;;;;15.77;7.35;;;13.30;88.40;;;;;;4953331;29;20026;-73
2023/03/27 01:04:34;;;;;;;17.27;7.05;;;13.30;88.80;;;;;;4953622;29;20099;-74
2023/03/27 01:07:02;;;;;;;14.63;5.82;;;13.20;90.10;;;;;;4968143;28;20046;-74
2023/03/27 01:09:28;;;;;;;8.95;4.07;;;13.10;90.60;;;;;;4935903;29;20114;-73
2023/03/27 01:12:37;;;;;;;13.55;5.68;;;12.90;90.80;;;;;;4919747;29;20028;-74
2023/03/27 01:15:49;;;;;;;14.80;7.35;;;12.90;91.90;;;;;;4878077;29;20041;-73
2023/03/27 01:18:36;;;;;;;17.52;7.40;;;12.90;91.60;;;;;;4820350;29;20377;-72
2023/03/27 01:21:21;;;;;;;19.40;8.20;;;13.00;91.30;;;;;;4820185;29;20042;-71
2023/03/27 01:24:01;;;;;;;20.10;8.90;;;13.00;90.70;;;;;;4820040;29;20388;-74
2023/03/27 01:27:21;;;;;;;21.17;10.52;;;13.10;90.30;;;;;;4805046;29;20707;-73
2023/03/27 01:30:02;;;;;;;14.85;6.65;;;13.20;89.90;;;;;;4784092;29;20055;-73
2023/03/27 01:33:16;;;;;;;18.05;7.47;;;13.20;90.00;;;;;;4784090;29;20050;-73
2023/03/27 01:35:53;;;;;;;;;;;13.20;90.40;;;;;;4784142;29;20575;-74
2023/03/27 01:38:37;;;;;;;10.02;5.10;;;13.10;90.70;;;;;;4783412;30;19956;-72
2023/03/27 01:41:09;;;;;;;17.27;9.05;;;13.10;90.70;;;;;;4783396;29;20039;-73
2023/03/27 01:43:38;;;;;;;19.48;11.82;;;13.10;90.50;;;;;;4783495;29;20044;-72
2023/03/27 01:46:40;;;;;;;18.48;8.55;;;13.10;90.60;;;;;;4783284;29;20043;-74
2023/03/27 01:49:44;;;;;;;13.80;6.72;;;13.10;90.70;;;;;;4786385;29;20035;-75
2023/03/27 01:52:17;;;;;;;13.80;6.45;;;13.10;90.50;;;;;;4757412;30;20040;-73
2023/03/27 01:54:49;;;;;;;13.40;5.72;;;13.10;90.80;;;;;;4765274;30;20100;-72
2023/03/27 01:57:21;;;;;;;11.57;5.63;;;13.00;90.90;;;;;;4762862;30;20032;-74
2023/03/27 02:00:16;;;;;;;15.48;5.05;;;13.00;91.00;;;;;;4762513;30;20036;-73
2023/03/27 02:02:52;;;;;;;8.48;4.00;;;13.00;91.00;;;;;;4765629;30;20044;-74
2023/03/27 02:05:23;;;;;;;7.05;4.03;;;13.10;91.00;;;;;;4808479;29;20078;-74
2023/03/27 02:07:54;;;;;;;8.90;4.18;;;13.10;91.00;;;;;;4837507;29;20041;-73
2023/03/27 02:10:31;;;;;;;6.95;3.58;;;13.10;90.50;;;;;;4837462;29;20038;-72
2023/03/27 02:13:07;;;;;;;6.70;3.50;;;13.10;90.30;;;;;;4836863;29;20125;-73
2023/03/27 02:15:36;;;;;;;12.68;4.03;;;13.20;90.00;;;;;;4837506;29;20498;-73
2023/03/27 02:18:08;;;;;;;12.35;3.50;;;13.30;90.10;;;;;;4837550;29;20057;-73
2023/03/27 02:20:37;;;;;;;7.40;3.13;;;13.30;89.70;;;;;;4822027;29;20128;-71
2023/03/27 02:23:05;;;;;;;7.75;3.05;;;13.30;90.00;;;;;;4834516;29;20052;-73
2023/03/27 02:25:39;;;;;;;6.78;3.17;;;13.30;90.00;;;;;;4866310;29;20040;-75
2023/03/27 02:28:05;;;;;;;10.80;3.10;;;13.30;89.80;;;;;;4926861;29;20517;-71
2023/03/27 02:30:56;;;;;;;7.20;3.55;;;13.30;89.50;;;;;;4918641;29;20028;-72
2023/03/27 02:33:46;;;;;;;7.88;3.92;;;13.30;90.00;;;;;;4922356;29;20097;-72
2023/03/27 02:36:40;;;;;;;8.65;3.78;;;13.30;90.10;;;;;;4918511;29;20479;-73
2023/03/27 02:39:20;;;;;;;6.78;3.65;;;13.30;90.50;;;;;;4950732;29;20073;-73
2023/03/27 02:42:00;;;;;;;10.30;4.10;;;13.30;90.20;;;;;;4945416;29;20047;-72
2023/03/27 02:44:58;;;;;;;9.52;4.32;;;13.30;90.20;;;;;;4918195;29;20051;-72
2023/03/27 02:47:38;;;;;;;9.75;4.03;;;13.30;90.30;;;;;;4917444;29;20059;-70
2023/03/27 02:50:18;;;;;;;9.02;4.25;;;13.30;90.40;;;;;;4951063;28;20406;-72
2023/03/27 02:52:50;;;;;;;8.48;3.80;;;13.30;90.50;;;;;;4952174;29;20042;-71
2023/03/27 02:55:32;;;;;;;8.35;4.03;;;13.30;90.60;;;;;;4950362;28;20031;-71
2023/03/27 02:58:29;;;;;;;7.40;3.72;;;13.30;90.30;;;;;;4966791;28;20031;-73
2023/03/27 03:01:09;;;;;;;9.30;3.45;;;13.30;90.30;;;;;;4952757;28;20486;-73
2023/03/27 03:04:02;;;;;;;6.75;3.35;;;13.30;90.30;;;;;;4941060;29;20082;-73
2023/03/27 03:06:41;;;;;;;7.28;3.72;;;13.30;90.40;;;;;;4948292;28;20035;-73
2023/03/27 03:09:09;;;;;;;7.80;3.30;;;13.30;90.10;;;;;;4960718;28;20034;-71
2023/03/27 03:11:37;;;;;;;9.43;4.55;;;13.40;90.10;;;;;;4957049;29;20019;-74
2023/03/27 03:14:04;;;;;;;5.68;3.45;;;13.40;90.20;;;;;;4955262;29;20054;-72
2023/03/27 03:16:30;;;;;;;10.35;4.28;;;13.40;90.50;;;;;;4950839;28;20506;-72
2023/03/27 03:18:56;;;;;;;7.57;3.72;;;13.40;90.40;;;;;;4969683;28;20027;-74
2023/03/27 03:21:23;;;;;;;8.32;4.65;;;13.40;90.10;;;;;;4955516;29;20095;-73
2023/03/27 03:23:49;;;;;;;9.65;4.72;;;13.40;90.20;;;;;;4955158;29;20066;-73
2023/03/27 03:26:16;;;;;;;9.85;3.78;;;13.50;89.60;;;;;;4956832;29;20042;-73
2023/03/27 03:28:46;;;;;;;5.70;2.97;;;13.50;89.40;;;;;;4955205;28;20115;-73
2023/03/27 03:31:13;;;;;;;5.53;3.33;;;13.60;88.90;;;;;;4954895;29;20058;-71
2023/03/27 03:33:39;;;;;;;9.20;3.33;;;13.60;89.20;;;;;;4956473;29;20027;-73
2023/03/27 03:36:06;;;;;;;8.02;3.88;;;13.60;89.80;;;;;;4955263;29;20394;-73
2023/03/27 03:38:35;;;;;;;9.00;4.30;;;13.60;89.50;;;;;;4939279;29;20059;-73
2023/03/27 03:41:03;;;;;;;10.63;4.03;;;13.70;89.60;;;;;;4938439;29;20487;-71
2023/03/27 03:43:30;;;;;;;7.18;3.45;;;13.40;91.70;;;;;;4955315;28;20114;-71
2023/03/27 03:45:58;;;;;;;8.88;3.20;;;12.60;99.90;;;;;;4954723;29;20036;-72
2023/03/27 03:48:25;;;;;;;8.25;4.25;;;11.60;99.90;;;;;;4954972;29;20030;-71
2023/03/27 03:50:51;;;;;;;7.55;3.20;;;10.90;99.90;;;;;;4954920;29;20090;-73
2023/03/27 03:53:20;;;;;;;4.88;3.00;;;10.80;99.90;;;;;;4927603;29;20440;-72
2023/03/27 03:55:49;;;;;;;8.50;2.85;;;10.60;99.90;;;;;;4956186;29;20430;-73
2023/03/27 03:58:15;;;;;;;6.35;3.35;;;10.50;99.90;;;;;;4956070;29;20035;-72
2023/03/27 04:00:43;;;;;;;6.00;3.30;;;10.50;99.90;;;;;;4952535;28;20031;-73
2023/03/27 04:03:31;;;;;;;6.05;2.63;;;10.40;99.90;;;;;;4954709;28;20027;-73
2023/03/27 04:06:04;;;;;;;3.17;1.67;;;10.30;99.90;;;;;;4970518;28;20525;-73
2023/03/27 04:08:31;;;;;;;5.03;1.77;;;10.30;99.90;;;;;;4942475;29;20035;-71
2023/03/27 04:11:04;;;;;;;7.82;4.13;;;10.20;99.90;;;;;;4955185;29;20031;-73
2023/03/27 04:13:51;;;;;;;6.18;2.00;;;10.10;99.90;;;;;;4938251;29;20035;-73
2023/03/27 04:16:26;;;;;;;3.60;1.58;;;10.10;99.90;;;;;;4967624;28;20120;-72
2023/03/27 04:18:54;;;;;;;2.13;1.30;;;10.10;99.90;;;;;;4953196;28;20031;-73
2023/03/27 04:21:21;;;;;;;5.70;1.90;;;10.10;99.90;;;;;;4942119;28;20118;-73
2023/03/27 04:23:47;;;;;;;4.93;1.98;;;10.10;99.90;;;;;;4951057;28;20034;-73
2023/03/27 04:26:25;;;;;;;40.47;19.55;;;10.20;99.90;;;;;;4950603;29;20498;-73
2023/03/27 04:29:09;;;;;;;9.52;4.00;;;10.30;99.90;;;;;;4947123;29;20392;-73
2023/03/27 04:31:54;;;;;;;8.93;3.55;;;10.40;99.90;;;;;;4955536;29;20058;-72
2023/03/27 04:34:48;;;;;;;6.43;3.33;;;10.40;99.90;;;;;;4905406;29;20048;-73
2023/03/27 04:37:32;;;;;;;3.83;2.10;;;10.50;99.90;;;;;;4914675;29;20076;-71
2023/03/27 04:40:19;;;;;;;3.17;2.00;;;10.60;99.90;;;;;;4899689;29;20036;-73
2023/03/27 04:42:46;;;;;;;9.20;2.78;;;10.50;99.90;;;;;;4899007;29;20052;-73
2023/03/27 04:45:16;;;;;;;5.57;2.35;;;10.60;99.90;;;;;;4898248;29;20040;-71
2023/03/27 04:47:45;;;;;;;5.07;2.25;;;10.60;99.90;;;;;;4901891;29;20049;-71
2023/03/27 04:50:11;;;;;;;3.20;2.20;;;10.70;99.90;;;;;;4894706;29;20459;-72
2023/03/27 04:52:37;;;;;;;6.13;2.40;;;10.70;99.90;;;;;;4908393;29;20094;-71
2023/03/27 04:55:04;;;;;;;4.07;2.35;;;10.70;99.90;;;;;;4913679;29;20114;-71
2023/03/27 04:57:31;;;;;;;5.90;2.42;;;10.70;99.90;;;;;;4914369;29;20188;-74
2023/03/27 05:00:01;;;;;;;7.47;2.65;;;10.70;99.90;;;;;;4899092;29;20532;-72
2023/03/27 05:02:51;;;;;;;3.10;2.15;;;10.60;99.90;;;;;;4884795;29;20040;-71
2023/03/27 05:05:27;;;;;;;5.22;2.28;;;10.60;99.90;;;;;;4899061;29;20389;-74
2023/03/27 05:07:54;;;;;;;5.85;2.38;;;10.50;99.90;;;;;;4898061;29;20024;-71
2023/03/27 05:10:23;;;;;;;7.35;3.30;;;10.50;99.90;;;;;;4913412;29;20120;-71
2023/03/27 05:12:52;;;;;;;5.45;2.78;;;10.50;99.90;;;;;;4940330;29;20027;-72
2023/03/27 05:15:19;;;;;;;9.75;3.70;;;10.50;99.90;;;;;;4954266;29;20098;-74
2023/03/27 05:17:51;;;;;;;4.55;3.17;;;10.50;99.90;;;;;;4928412;29;20091;-73
2023/03/27 05:20:20;;;;;;;6.82;3.25;;;10.50;99.90;;;;;;4959031;28;20031;-71
2023/03/27 05:22:47;;;;;;;5.63;3.15;;;10.50;99.90;;;;;;4936010;29;20444;-72
2023/03/27 05:25:23;;;;;;;4.45;2.55;;;10.50;99.90;;;;;;4948565;29;20399;-71
2023/03/27 05:27:51;;;;;;;9.18;3.60;;;10.50;99.90;;;;;;4932300;29;20061;-74
2023/03/27 05:30:21;;;;;;;11.70;4.07;;;10.50;99.90;;;;;;4935107;28;20030;-74
2023/03/27 05:32:52;;;;;;;12.32;5.03;;;10.50;99.90;;;;;;4951595;29;20027;-70
2023/03/27 05:35:25;;;;;;;13.02;5.60;;;10.60;99.90;;;;;;4953003;29;20060;-69
2023/03/27 05:37:53;;;;;;;11.80;5.75;;;10.70;99.90;;;;;;4937056;29;20027;-72
2023/03/27 05:40:27;;;;;;;17.30;8.35;;;10.80;99.90;;;;;;4948559;29;20027;-70
2023/03/27 05:42:55;;;;;;;17.25;8.40;;;10.80;99.90;;;;;;4950617;29;20054;-74
2023/03/27 05:45:25;;;;;;;15.32;6.22;;;10.90;99.90;;;;;;4951092;29;20114;-74
2023/03/27 05:47:56;;;;;;;12.48;6.20;;;10.90;99.90;;;;;;4952670;29;20031;-71
2023/03/27 05:50:25;;;;;;;13.30;6.85;;;11.00;99.90;;;;;;4951077;29;20023;-74
2023/03/27 05:53:01;;;;;;;17.77;8.27;;;11.00;99.90;;;;;;4950778;29;20027;-72
2023/03/27 05:55:37;;;;;;;15.18;8.10;;;11.00;99.90;;;;;;4967601;28;20479;-71
2023/03/27 05:58:05;;;;;;;18.90;8.75;;;11.10;99.90;;;;;;4935242;29;20031;-70
2023/03/27 06:00:33;;;;;;;13.98;6.72;;;11.10;99.90;;;;;;4951453;29;20074;-72
2023/03/27 06:03:02;;;;;;;16.20;7.93;;;11.10;99.90;;;;;;4951145;29;20038;-73
2023/03/27 06:05:47;;;;;;;17.75;8.95;;;11.10;99.90;;;;;;4952172;29;20086;-74
2023/03/27 06:08:14;;;;;;;13.15;6.13;;;11.20;99.90;;;;;;4954184;29;20027;-70
2023/03/27 06:10:43;;;;;;;10.18;5.32;;;11.30;99.90;;;;;;4952188;29;20050;-70
2023/03/27 06:13:22;;;;;;;11.90;6.07;;;11.30;99.90;;;;;;4936782;29;20031;-74
2023/03/27 06:15:59;;;;;;;9.15;5.07;;;11.30;99.90;;;;;;4952687;28;20475;-72
2023/03/27 06:18:41;;;;;;;11.77;6.10;;;11.40;99.90;;;;;;4952515;29;20459;-71
2023/03/27 06:21:09;;;;;;;10.93;4.80;;;11.40;99.90;;;;;;4953520;29;20030;-72
2023/03/27 06:23:35;;;;;;;10.93;6.03;;;11.40;99.90;;;;;;4936135;29;20384;-73
2023/03/27 06:26:02;;;;;;;11.38;5.97;;;11.50;99.90;;;;;;4952378;29;20075;-74
2023/03/27 06:28:29;;;;;;;34.75;16.10;;;11.60;99.90;;;;;;4952603;28;20027;-70
2023/03/27 06:30:56;;;;;;;40.58;19.83;;;11.70;99.90;;;;;;4953782;29;20031;-70
2023/03/27 06:33:38;;;;;;;18.67;8.15;;;11.80;99.90;;;;;;4952688;29;20391;-73
2023/03/27 06:36:06;;;;;;;17.80;8.88;;;11.80;99.90;;;;;;4953635;29;20051;-73
2023/03/27 06:38:34;;;;;;;14.50;7.72;;;12.00;99.90;;;;;;4952603;28;20079;-72
2023/03/27 06:41:00;;;;;;;12.38;6.43;;;12.00;99.90;;;;;;4970073;28;20047;-73
2023/03/27 06:43:46;;;;;;;15.02;7.65;;;12.10;99.90;;;;;;4950231;29;20039;-70
2023/03/27 06:46:24;;;;;;;17.52;8.52;;;12.20;99.90;;;;;;4972271;28;20040;-74
2023/03/27 06:49:16;;;;;;;15.52;8.23;;;12.30;99.90;;;;;;4954609;29;20035;-73
2023/03/27 06:51:42;;;;;;;14.23;7.13;;;12.40;99.90;;;;;;4957240;29;20040;-74
2023/03/27 06:54:09;;;;;;;13.27;7.10;;;12.50;99.90;;;;;;4952821;28;20029;-73
2023/03/27 06:56:39;;;;;;;14.90;7.78;;;12.60;99.90;;;;;;4943343;29;20036;-73
2023/03/27 06:59:16;;;;;;;19.38;8.32;;;12.70;99.90;;;;;;4971933;28;20038;-73
2023/03/27 07:01:45;;;;;;;16.67;9.05;;;12.80;99.90;;;;;;4956023;28;20081;-73
2023/03/27 07:04:32;;;;;;;14.30;7.35;;;12.90;99.90;;;;;;4955866;29;20090;-74
2023/03/27 07:07:07;;;;;;;15.48;7.30;;;13.00;99.90;;;;;;4939811;29;20043;-73
2023/03/27 07:09:37;;;;;;;12.25;6.75;;;13.20;99.90;;;;;;4971970;28;20019;-74
2023/03/27 07:12:05;;;;;;;13.10;6.20;;;13.20;99.90;;;;;;4955761;29;20035;-73
2023/03/27 07:14:32;;;;;;;14.80;7.55;;;13.30;99.90;;;;;;4971997;28;20122;-73
2023/03/27 07:16:58;;;;;;;18.27;8.98;;;13.50;99.90;;;;;;4971769;28;20129;-73
2023/03/27 07:19:28;;;;;;;20.33;10.90;;;13.50;99.90;;;;;;4955232;28;20023;-73
2023/03/27 07:22:06;;;;;;;20.48;11.13;;;13.60;99.90;;;;;;4971942;28;20031;-71
2023/03/27 07:24:34;;;;;;;14.70;8.25;;;13.60;99.90;;;;;;4955565;28;20034;-74
2023/03/27 07:27:00;;;;;;;13.52;6.85;;;13.70;99.90;;;;;;4955557;29;20042;-73
2023/03/27 07:29:31;;;;;;;12.07;6.43;;;13.70;99.90;;;;;;4971542;28;20045;-73
2023/03/27 07:31:58;;;;;;;10.65;5.45;;;13.80;99.90;;;;;;4955388;28;20031;-73
2023/03/27 07:34:47;;;;;;;9.15;4.78;;;13.80;99.90;;;;;;4956528;29;20077;-74
2023/03/27 07:37:21;;;;;;;13.93;7.38;;;13.90;99.90;;;;;;4956550;29;20435;-74
2023/03/27 07:40:07;;;;;;;14.90;6.68;;;13.90;99.90;;;;;;4956234;29;20086;-73
2023/03/27 07:42:35;;;;;;;13.65;7.70;;;13.90;99.90;;;;;;4939420;29;20130;-73
2023/03/27 07:45:05;;;;;;;13.32;5.95;;;14.10;99.90;;;;;;4938878;29;20035;-73
2023/03/27 07:47:32;;;;;;;12.95;6.00;;;14.10;99.90;;;;;;4954872;28;20071;-73
2023/03/27 07:49:58;;;;;;;13.30;6.35;;;14.20;99.90;;;;;;4970946;28;20031;-74
2023/03/27 07:52:24;;;;;;;14.43;6.35;;;14.10;99.90;;;;;;4970453;28;20035;-73
2023/03/27 07:54:56;;;;;;;15.40;7.05;;;14.20;99.90;;;;;;4970544;28;20015;-73
2023/03/27 07:57:24;;;;;;;12.80;6.60;;;14.50;99.90;;;;;;4938730;29;20035;-73
2023/03/27 07:59:51;;;;;;;9.90;5.22;;;14.70;99.90;;;;;;4956023;29;20111;-73
2023/03/27 08:02:24;;;;;;;13.65;6.72;;;14.80;99.90;;;;;;4970755;28;20126;-74
2023/03/27 08:04:51;;;;;;;12.52;6.22;;;15.00;99.90;;;;;;4954786;29;20487;-73
2023/03/27 08:07:20;;;;;;;11.07;5.78;;;15.00;99.90;;;;;;4954329;29;20062;-73
2023/03/27 08:09:47;;;;;;;7.70;4.32;;;15.10;99.90;;;;;;4954774;29;20027;-74
2023/03/27 08:12:14;;;;;;;5.50;3.38;;;15.00;99.90;;;;;;4949095;29;20130;-74
2023/03/27 08:14:45;;;;;;;5.45;2.42;;;15.00;99.90;;;;;;4954589;29;20031;-73
2023/03/27 08:17:21;;;;;;;3.75;1.88;;;15.00;99.90;;;;;;4938618;29;20487;-73
2023/03/27 08:19:47;;;;;;;6.88;2.72;;;14.80;99.90;;;;;;4954449;29;20534;-74
2023/03/27 08:22:15;;;;;;;7.20;2.85;;;14.80;99.90;;;;;;4954353;29;20513;-73
2023/03/27 08:25:06;;;;;;;7.15;3.35;;;14.80;99.90;;;;;;4955555;29;20043;-72
2023/03/27 08:27:33;;;;;;;5.45;2.35;;;14.80;99.90;;;;;;4954015;29;20047;-73
2023/03/27 08:30:00;;;;;;;3.08;1.92;;;14.80;99.90;;;;;;4937452;29;20027;-73
2023/03/27 08:32:26;;;;;;;2.40;1.50;;;14.80;99.90;;;;;;4970386;28;20458;-74
2023/03/27 08:34:54;;;;;;;3.38;2.20;;;14.70;99.90;;;;;;4970287;28;20045;-72
2023/03/27 08:37:22;;;;;;;5.38;3.15;;;14.60;99.90;;;;;;4970251;28;20023;-73
2023/03/27 08:40:18;;;;;;;6.72;3.05;;;14.60;99.90;;;;;;4955072;29;20472;-73
2023/03/27 08:42:49;;;;;;;6.88;2.53;;;14.50;99.90;;;;;;4938153;29;20047;-74
2023/03/27 08:45:29;;;;;;;12.38;4.40;;;14.60;99.90;;;;;;4953758;28;20506;-73
2023/03/27 08:48:08;;;;;;;4.97;2.58;;;14.50;99.90;;;;;;4953705;29;20043;-73
2023/03/27 08:50:48;;;;;;;7.38;3.20;;;14.50;99.90;;;;;;4938239;29;20023;-73
2023/03/27 08:53:50;;;;;;;4.47;2.65;;;14.50;99.90;;;;;;4953877;29;20063;-73
2023/03/27 08:56:24;;;;;;;4.38;1.90;;;14.50;99.90;;;;;;4914678;29;20505;-73
2023/03/27 08:58:52;;;;;;;2.50;1.63;;;14.40;99.90;;;;;;4914749;29;20036;-74
2023/03/27 09:01:35;;;;;;;6.13;2.13;;;14.30;99.90;;;;;;4896154;29;20475;-73
2023/03/27 09:04:38;;;;;;;4.18;2.15;;;14.20;99.90;;;;;;4909249;29;20036;-73
2023/03/27 09:07:10;;;;;;;5.22;2.97;;;14.10;99.90;;;;;;4821612;29;20460;-73
2023/03/27 09:10:21;;;;;;;5.88;3.00;;;14.00;99.90;;;;;;4806402;29;20491;-72
2023/03/27 09:12:55;;;;;;;8.38;3.55;;;13.80;99.90;;;;;;4821746;29;20179;-74
2023/03/27 09:15:31;;;;;;;6.88;3.30;;;13.50;99.90;;;;;;4806235;29;20043;-74
2023/03/27 09:18:01;;;;;;;5.20;1.80;;;13.20;99.90;;;;;;4806374;29;20149;-73
2023/03/27 09:20:49;;;;;;;3.30;2.00;;;12.50;99.90;;;;;;4806288;29;20043;-73
2023/03/27 09:23:38;;;;;;;3.05;1.98;;;11.80;99.90;;;;;;4806822;29;20121;-73
2023/03/27 09:26:34;;;;;;;4.40;2.40;;;11.60;99.90;;;;;;4821855;29;20057;-72
2023/03/27 09:29:09;;;;;;;3.63;2.65;;;11.40;99.90;;;;;;4821392;29;20034;-73
2023/03/27 09:31:45;;;;;;;5.75;2.50;;;11.40;99.90;;;;;;4821700;29;20054;-74
2023/03/27 09:34:22;;;;;;;4.32;3.03;;;11.40;99.90;;;;;;4846965;29;20481;-74
2023/03/27 09:36:48;;;;;;;5.28;2.95;;;11.50;99.90;;;;;;4860889;29;20045;-73
2023/03/27 09:39:21;;;;;;;3.22;2.60;;;11.40;99.90;;;;;;4861049;29;20500;-73
2023/03/27 09:41:59;;;;;;;5.97;3.17;;;11.40;99.90;;;;;;4860445;29;20064;-72
2023/03/27 09:44:33;;;;;;;7.30;2.92;;;11.50;99.90;;;;;;4924855;29;20035;-72
2023/03/27 09:47:13;;;;;;;5.32;3.25;;;11.60;99.90;;;;;;4954343;29;20042;-72
2023/03/27 09:49:46;;;;;;;5.47;2.42;;;11.50;99.90;;;;;;4953011;28;20379;-73
2023/03/27 09:52:46;;;;;;;4.20;2.55;;;11.60;99.90;;;;;;4953123;29;20042;-70
2023/03/27 09:55:49;;;;;;;6.68;3.67;;;11.80;99.90;;;;;;4913715;28;20040;-71
2023/03/27 09:58:35;;;;;;;5.43;3.60;;;12.00;99.90;;;;;;4913891;29;20047;-74
2023/03/27 10:01:14;;;;;;;8.13;4.28;;;12.20;99.90;;;;;;4913961;29;20064;-74
2023/03/27 10:03:44;;;;;;;;;;;12.20;99.90;;;;;;4898510;29;20032;-72
2023/03/27 10:06:15;;;;;;;3.35;2.03;;;11.80;99.90;;;;;;4913672;29;19998;-73
2023/03/27 10:09:06;;;;;;;3.50;1.25;;;10.90;99.90;;;;;;4913718;29;20624;-73
2023/03/27 10:11:36;;;;;;;2.13;1.80;;;10.60;99.90;;;;;;4913577;29;20051;-73
2023/03/27 10:14:15;;;;;;;2.17;1.30;;;10.50;99.90;;;;;;4897870;29;20024;-74
2023/03/27 10:16:44;;;;;;;1.42;1.20;;;10.40;99.90;;;;;;4913340;29;20455;-74
2023/03/27 10:19:25;;;;;;;2.38;1.80;;;10.40;99.90;;;;;;4913523;29;20123;-73
2023/03/27 10:21:55;;;;;;;2.63;1.73;;;10.40;99.90;;;;;;4913591;29;20255;-72
2023/03/27 10:24:35;;;;;;;3.25;1.95;;;10.50;99.90;;;;;;4897782;29;20056;-71
2023/03/27 10:27:26;;;;;;;2.65;1.98;;;10.70;99.90;;;;;;4913036;29;20088;-74
2023/03/27 10:30:26;;;;;;;5.18;2.65;;;10.60;99.90;;;;;;4913326;29;20576;-73
2023/03/27 10:32:57;;;;;;;4.95;2.45;;;10.80;99.90;;;;;;4936874;29;20059;-74
2023/03/27 10:35:43;;;;;;;2.88;2.00;;;10.90;99.90;;;;;;4953477;29;20071;-75
2023/03/27 10:38:16;;;;;;;3.95;2.35;;;10.90;99.90;;;;;;4936311;29;20031;-73
2023/03/27 10:40:50;;;;;;;5.72;2.35;;;11.00;99.90;;;;;;4938123;28;20510;-73
2023/03/27 10:43:41;;;;;;;3.38;1.98;;;10.70;99.90;;;;;;4971323;28;20098;-74
2023/03/27 10:46:15;;;;;;;5.38;2.60;;;10.60;99.90;;;;;;4971195;28;20054;-73
2023/03/27 10:48:51;;;;;;;7.32;3.47;;;10.50;99.90;;;;;;4973117;28;20034;-73
2023/03/27 10:51:52;;;;;;;2.85;2.08;;;10.40;99.90;;;;;;4974284;28;20040;-73
2023/03/27 10:54:45;;;;;;;5.68;2.97;;;10.20;99.90;;;;;;4959938;28;20110;-72
2023/03/27 10:57:20;;;;;;;5.78;3.08;;;10.10;99.90;;;;;;4972768;28;20065;-74
2023/03/27 10:59:55;;;;;;;3.70;2.47;;;10.20;99.90;;;;;;4971625;28;20031;-71
2023/03/27 11:02:37;;;;;;;3.53;2.50;;;10.20;99.90;;;;;;4955443;28;20030;-71
2023/03/27 11:05:29;;;;;;;4.88;2.88;;;10.30;99.90;;;;;;4942647;28;20027;-74
2023/03/27 11:08:35;;;;;;;4.97;3.13;;;10.60;99.90;;;;;;4970614;28;20035;-72
2023/03/27 11:11:15;;;;;;;3.97;2.10;;;10.50;99.90;;;;;;4962021;28;20046;-72
2023/03/27 11:13:46;;;;;;;5.00;2.17;;;10.50;99.90;;;;;;4972019;28;20054;-73
2023/03/27 11:16:21;;;;;;;4.55;2.40;;;10.50;99.90;;;;;;4971171;28;20038;-72
2023/03/27 11:19:11;;;;;;;2.30;1.75;;;10.50;99.90;;;;;;4972616;28;20114;-74
2023/03/27 11:22:18;;;;;;;3.65;2.20;;;10.40;99.90;;;;;;4972655;28;20035;-74
2023/03/27 11:24:57;;;;;;;3.63;2.10;;;10.40;99.90;;;;;;4944996;28;20031;-74
2023/03/27 11:27:33;;;;;;;4.15;2.38;;;10.30;99.90;;;;;;4955479;28;20057;-71
2023/03/27 11:30:15;;;;;;;5.22;2.83;;;10.30;99.90;;;;;;4976119;28;20034;-71
2023/03/27 11:33:23;;;;;;;4.63;2.88;;;10.20;99.90;;;;;;4974942;28;20038;-73
2023/03/27 11:36:21;;;;;;;4.07;2.67;;;10.10;99.90;;;;;;4974924;28;20122;-72
2023/03/27 11:39:15;;;;;;;4.78;1.92;;;9.90;99.90;;;;;;4958647;28;20110;-71
2023/03/27 11:41:56;;;;;;;2.60;1.85;;;9.80;99.90;;;;;;4958102;28;20089;-71
2023/03/27 11:44:24;;;;;;;3.85;1.73;;;9.90;99.90;;;;;;4974252;28;20023;-74
2023/03/27 11:47:51;;;;;;;3.25;1.83;;;10.10;99.90;;;;;;4955952;28;20139;-73
2023/03/27 11:50:51;;;;;;;3.90;1.90;;;10.30;99.90;;;;;;4958368;28;20046;-71
2023/03/27 11:53:42;;;;;;;5.20;2.05;;;10.20;99.90;;;;;;4975344;28;20419;-73
2023/03/27 11:56:27;;;;;;;3.28;1.77;;;10.20;99.90;;;;;;4975821;28;20106;-74
2023/03/27 11:59:03;;;;;;;3.03;2.20;;;10.20;99.90;;;;;;4957886;28;20031;-74
2023/03/27 12:02:07;;;;;;;4.15;2.15;;;10.10;99.90;;;;;;4975244;28;20117;-74
2023/03/27 12:04:37;;;;;;;5.30;2.38;;;10.20;99.90;;;;;;4974131;28;20457;-73
2023/03/27 12:07:58;;;;;;;4.97;2.58;;;10.20;99.90;;;;;;4915909;29;20540;-74
2023/03/27 12:10:30;;;;;;;5.15;2.22;;;10.50;99.90;;;;;;4900151;29;20036;-73
2023/03/27 12:13:20;;;;;;;1.95;1.75;;;10.50;99.90;;;;;;4899895;29;20424;-73
2023/03/27 12:16:17;;;;;;;2.95;1.52;;;10.80;99.90;;;;;;4899771;29;20034;-72
2023/03/27 12:19:04;;;;;;;3.97;2.22;;;11.00;99.90;;;;;;4899615;29;20039;-70
2023/03/27 12:21:57;;;;;;;3.03;1.58;;;11.20;99.90;;;;;;4899985;29;20123;-72
2023/03/27 12:24:48;;;;;;;2.33;1.53;;;11.20;99.90;;;;;;4904756;28;20032;-74
2023/03/27 12:27:54;;;;;;;3.67;1.63;;;11.60;99.90;;;;;;4859389;29;20167;-71
2023/03/27 12:30:32;;;;;;;3.58;1.77;;;11.70;99.90;;;;;;4843786;29;20037;-73
2023/03/27 12:33:09;;;;;;;3.35;1.90;;;11.50;99.90;;;;;;4859086;29;20468;-74
2023/03/27 12:35:41;;;;;;;1.70;1.27;;;11.40;99.90;;;;;;4844041;29;20441;-74
2023/03/27 12:38:30;;;;;;;4.93;2.67;;;11.20;99.90;;;;;;4873900;29;20041;-72
2023/03/27 12:41:09;;;;;;;3.17;2.00;;;11.20;99.90;;;;;;4914811;29;20056;-73
2023/03/27 12:44:02;;;;;;;5.60;2.15;;;11.40;99.90;;;;;;4898970;29;20448;-71
2023/03/27 12:46:38;;;;;;;3.55;1.98;;;11.30;99.90;;;;;;4915051;29;20580;-72
2023/03/27 12:49:09;;;;;;;3.58;1.83;;;11.20;99.90;;;;;;4899295;29;20054;-73
2023/03/27 12:51:52;;;;;;;3.92;1.80;;;11.10;99.90;;;;;;4899029;29;20052;-74
2023/03/27 12:55:12;;;;;;;3.63;1.60;;;11.00;99.90;;;;;;4915069;29;20028;-73
2023/03/27 12:58:00;;;;;;;2.95;1.63;;;10.90;99.90;;;;;;4892933;29;20056;-73
2023/03/27 13:00:58;;;;;;;3.30;1.98;;;10.90;99.90;;;;;;4899178;29;20373;-73
2023/03/27 13:04:09;;;;;;;3.65;2.00;;;10.90;99.90;;;;;;4872947;29;20128;-72
2023/03/27 13:06:45;;;;;;;3.67;1.90;;;10.90;99.90;;;;;;4879860;29;20080;-72
2023/03/27 13:09:37;;;;;;;8.40;3.13;;;10.90;99.90;;;;;;4880272;29;20040;-72
2023/03/27 13:12:21;;;;;;;2.95;1.83;;;10.90;99.90;;;;;;4880024;29;20477;-74
2023/03/27 13:14:52;;;;;;;3.50;1.88;;;10.90;99.90;;;;;;4895693;29;20062;-72
2023/03/27 13:17:46;;;;;;;3.50;1.73;;;10.90;99.90;;;;;;4879708;29;20504;-72
2023/03/27 13:20:21;;;;;;;3.80;1.98;;;10.90;99.90;;;;;;4879637;29;20043;-72
2023/03/27 13:23:33;;;;;;;5.35;2.17;;;10.90;99.90;;;;;;4880285;29;20525;-74
2023/03/27 13:26:45;;;;;;;4.43;2.10;;;10.90;99.90;;;;;;4795560;29;20073;-73
2023/03/27 13:29:21;;;;;;;4.00;1.48;;;11.00;99.90;;;;;;4799791;29;20503;-74
2023/03/27 13:32:00;;;;;;;5.28;1.90;;;11.00;99.90;;;;;;4811419;29;20519;-74
2023/03/27 13:35:15;;;;;;;3.88;2.15;;;11.20;99.90;;;;;;4803063;29;20388;-71